createdAt,value
2018-08-04T00:01:05.960Z,62.20
2018-08-04T00:03:34.501Z,61.50
2018-08-04T00:06:02.921Z,61.70
2018-08-04T00:08:31.391Z,61.50
2018-08-04T00:10:59.812Z,61.60
2018-08-04T00:13:28.427Z,61.70
2018-08-04T00:15:56.908Z,62.50
2018-08-04T00:18:25.393Z,62.40
2018-08-04T00:20:53.891Z,62.30
2018-08-04T00:23:22.338Z,62.00
2018-08-04T00:25:50.724Z,62.40
2018-08-04T00:28:19.211Z,62.70
2018-08-04T00:30:47.800Z,63.00
2018-08-04T00:33:16.183Z,63.80
2018-08-04T00:35:44.865Z,64.40
2018-08-04T00:38:13.242Z,65.00
2018-08-04T00:40:41.642Z,69.00
2018-08-04T00:43:10.045Z,70.70
2018-08-04T00:45:38.478Z,71.10
2018-08-04T00:48:07.068Z,72.10
2018-08-04T00:53:04.713Z,73.40
2018-08-04T00:55:33.249Z,74.10
2018-08-04T00:58:01.643Z,74.40
2018-08-04T01:00:30.216Z,74.70
2018-08-04T01:02:58.578Z,74.80
2018-08-04T01:05:26.982Z,75.40
2018-08-04T01:07:55.370Z,75.70
2018-08-04T01:10:24.381Z,76.00
2018-08-04T01:12:52.849Z,76.90
2018-08-04T01:15:21.493Z,76.50
2018-08-04T01:17:49.971Z,76.90
2018-08-04T01:20:18.366Z,76.60
2018-08-04T01:22:46.768Z,76.80
2018-08-04T01:25:15.171Z,77.10
2018-08-04T01:30:11.718Z,78.00
2018-08-04T01:32:40.147Z,78.00
2018-08-04T01:35:08.543Z,78.10
2018-08-04T01:37:36.983Z,78.50
2018-08-04T01:40:06.218Z,78.40
2018-08-04T01:42:34.587Z,78.00
2018-08-04T01:45:03.068Z,78.20
2018-08-04T01:47:31.438Z,78.30
2018-08-04T01:49:59.797Z,79.00
2018-08-04T01:52:28.263Z,79.00
2018-08-04T01:54:56.657Z,79.40
2018-08-04T01:57:25.178Z,80.00
2018-08-04T01:59:53.622Z,81.20
2018-08-04T02:02:22.263Z,81.30
2018-08-04T02:04:50.624Z,82.30
2018-08-04T02:07:19.072Z,82.80
2018-08-04T02:09:47.487Z,83.40
2018-08-04T02:12:16.367Z,84.80
2018-08-04T02:14:44.856Z,85.10
2018-08-04T02:17:13.271Z,85.60
2018-08-04T02:19:41.748Z,86.30
2018-08-04T02:22:10.327Z,86.70
2018-08-04T02:24:38.768Z,86.80
2018-08-04T02:27:07.183Z,88.00
2018-08-04T02:29:35.639Z,88.50
2018-08-04T02:32:04.251Z,89.30
2018-08-04T02:34:32.957Z,89.20
2018-08-04T02:37:01.595Z,89.60
2018-08-04T02:39:30.361Z,89.70
2018-08-04T02:41:58.996Z,89.20
2018-08-04T02:44:27.540Z,89.20
2018-08-04T02:46:56.034Z,89.90
2018-08-04T02:49:24.522Z,89.80
2018-08-04T02:51:53.132Z,89.70
2018-08-04T02:54:21.627Z,89.50
2018-08-04T02:56:50.082Z,89.30
2018-08-04T02:59:18.482Z,89.30
2018-08-04T03:01:46.905Z,89.20
2018-08-04T03:04:15.345Z,89.10
2018-08-04T03:06:43.714Z,89.10
2018-08-04T03:09:12.907Z,89.20
2018-08-04T03:11:41.862Z,89.50
2018-08-04T03:14:10.293Z,89.30
2018-08-04T03:16:38.728Z,89.60
2018-08-04T03:19:07.149Z,89.70
2018-08-04T03:21:35.570Z,90.00
2018-08-04T03:24:04.031Z,90.30
2018-08-04T03:26:32.759Z,90.00
2018-08-04T03:29:01.171Z,90.30
2018-08-04T03:31:29.633Z,90.40
2018-08-04T03:33:57.997Z,90.20
2018-08-04T03:36:26.398Z,90.30
2018-08-04T03:38:54.868Z,90.30
2018-08-04T03:41:23.287Z,90.50
2018-08-04T03:43:51.922Z,90.60
2018-08-04T03:46:20.366Z,90.30
2018-08-04T03:48:48.754Z,90.10
2018-08-04T03:51:17.163Z,90.10
2018-08-04T03:53:45.776Z,90.30
2018-08-04T03:56:14.165Z,90.10
2018-08-04T03:58:42.581Z,90.10
2018-08-04T04:01:11.116Z,90.20
2018-08-04T04:03:39.550Z,90.30
2018-08-04T04:06:07.984Z,90.30
2018-08-04T04:08:36.438Z,90.40
2018-08-04T04:11:04.856Z,90.50
2018-08-04T04:13:33.259Z,90.20
2018-08-04T04:16:01.710Z,90.20
2018-08-04T04:18:30.257Z,90.00
2018-08-04T04:20:58.663Z,90.40
2018-08-04T04:23:27.083Z,90.00
2018-08-04T04:25:55.469Z,89.60
2018-08-04T04:28:24.083Z,89.60
2018-08-04T04:30:52.510Z,89.20
2018-08-04T04:33:21.148Z,89.20
2018-08-04T04:35:49.583Z,89.30
2018-08-04T04:38:18.010Z,89.20
2018-08-04T04:40:46.411Z,89.20
2018-08-04T04:43:14.832Z,89.00
2018-08-04T04:45:43.384Z,89.30
2018-08-04T04:48:11.799Z,89.30
2018-08-04T04:50:40.182Z,89.30
2018-08-04T04:53:08.613Z,89.10
2018-08-04T04:55:37.117Z,89.30
2018-08-04T04:58:05.761Z,89.20
2018-08-04T05:00:34.211Z,88.60
2018-08-04T05:03:02.678Z,87.80
2018-08-04T05:05:31.067Z,87.20
2018-08-04T05:07:59.507Z,87.20
2018-08-04T05:10:27.908Z,86.80
2018-08-04T05:12:56.459Z,86.10
2018-08-04T05:15:25.047Z,85.50
2018-08-04T05:17:53.475Z,85.00
2018-08-04T05:20:21.904Z,84.30
2018-08-04T05:22:50.472Z,84.00
2018-08-04T05:25:19.006Z,83.70
2018-08-04T05:27:47.434Z,83.80
2018-08-04T05:30:15.899Z,83.50
2018-08-04T05:32:44.508Z,83.50
2018-08-04T05:35:12.989Z,83.50
2018-08-04T05:37:41.432Z,83.50
2018-08-04T05:40:09.866Z,82.90
2018-08-04T05:42:38.296Z,82.50
2018-08-04T05:45:08.095Z,82.10
2018-08-04T05:47:36.516Z,81.70
2018-08-04T05:50:05.824Z,81.70
2018-08-04T05:52:34.318Z,81.70
2018-08-04T05:55:02.888Z,81.70
2018-08-04T05:57:31.410Z,81.00
2018-08-04T06:00:00.157Z,80.90
2018-08-04T06:02:28.548Z,80.20
2018-08-04T06:04:57.034Z,80.50
2018-08-04T06:07:25.438Z,80.10
2018-08-04T06:12:22.272Z,80.00
2018-08-04T06:14:50.683Z,79.70
2018-08-04T06:19:47.267Z,78.80
2018-08-04T06:22:15.708Z,78.70
2018-08-04T06:24:44.175Z,78.60
2018-08-04T06:27:12.599Z,78.00
2018-08-04T06:29:41.045Z,77.30
2018-08-04T06:32:09.870Z,76.80
2018-08-04T06:34:38.830Z,76.20
2018-08-04T06:37:07.419Z,75.70
2018-08-04T06:39:36.612Z,75.70
2018-08-04T06:42:05.005Z,76.60
2018-08-04T06:44:33.542Z,76.50
2018-08-04T06:47:02.064Z,76.40
2018-08-04T06:49:30.944Z,77.20
2018-08-04T06:51:59.537Z,77.00
2018-08-04T06:54:27.969Z,77.10
2018-08-04T06:56:56.406Z,77.20
2018-08-04T06:59:25.048Z,77.10
2018-08-04T07:01:53.495Z,75.80
2018-08-04T07:04:21.982Z,76.60
2018-08-04T07:06:50.378Z,75.70
2018-08-04T07:09:18.858Z,76.40
2018-08-04T07:11:47.281Z,75.60
2018-08-04T07:14:15.838Z,74.80
2018-08-04T07:16:44.234Z,74.40
2018-08-04T07:19:12.728Z,73.80
2018-08-04T07:21:41.530Z,73.20
2018-08-04T07:24:10.174Z,73.70
2018-08-04T07:26:38.634Z,73.20
2018-08-04T07:29:07.185Z,73.20
2018-08-04T07:31:35.771Z,73.80
2018-08-04T07:34:04.452Z,74.30
2018-08-04T07:36:32.906Z,74.20
2018-08-04T07:39:01.389Z,73.20
2018-08-04T07:41:29.991Z,72.60
2018-08-04T07:43:58.400Z,72.30
2018-08-04T07:46:26.917Z,71.90
2018-08-04T07:48:55.753Z,71.50
2018-08-04T07:51:24.167Z,71.20
2018-08-04T07:53:52.610Z,71.20
2018-08-04T07:56:21.244Z,70.80
2018-08-04T07:58:49.643Z,70.10
2018-08-04T08:01:18.516Z,70.40
2018-08-04T08:03:47.108Z,70.50
2018-08-04T08:06:15.794Z,70.00
2018-08-04T08:08:44.250Z,69.30
2018-08-04T08:11:12.843Z,69.30
2018-08-04T08:13:41.153Z,68.50
2018-08-04T08:16:09.822Z,68.70
2018-08-04T08:18:38.267Z,67.00
2018-08-04T08:21:06.782Z,66.70
2018-08-04T08:23:35.166Z,65.90
2018-08-04T08:26:09.659Z,66.20
2018-08-04T08:28:38.619Z,65.80
2018-08-04T08:31:07.303Z,64.90
2018-08-04T08:33:35.936Z,65.00
2018-08-04T08:36:04.785Z,64.90
2018-08-04T08:38:33.244Z,63.70
2018-08-04T08:41:02.032Z,63.90
2018-08-04T08:43:30.482Z,63.30
2018-08-04T08:45:59.119Z,62.60
2018-08-04T08:48:27.555Z,62.30
2018-08-04T08:50:55.996Z,62.00
2018-08-04T08:53:24.870Z,61.60
2018-08-04T08:55:53.547Z,60.90
2018-08-04T08:58:21.946Z,60.60
2018-08-04T09:00:50.369Z,59.90
2018-08-04T09:03:18.887Z,60.00
2018-08-04T09:05:47.458Z,59.60
2018-08-04T09:08:15.805Z,59.40
2018-08-04T09:10:44.964Z,58.90
2018-08-04T09:13:13.402Z,58.70
2018-08-04T09:15:41.840Z,58.00
2018-08-04T09:18:10.129Z,58.00
2018-08-04T09:20:38.606Z,57.70
2018-08-04T09:23:07.070Z,57.50
2018-08-04T09:25:35.405Z,56.70
2018-08-04T09:28:03.847Z,56.70
2018-08-04T09:30:32.294Z,56.60
2018-08-04T09:33:00.662Z,56.00
2018-08-04T09:35:29.086Z,55.10
2018-08-04T09:37:57.634Z,55.40
2018-08-04T09:40:26.028Z,55.90
2018-08-04T09:45:22.576Z,55.20
2018-08-04T09:47:50.966Z,55.00
2018-08-04T09:50:19.341Z,55.00
2018-08-04T09:57:44.094Z,54.90
2018-08-04T10:00:18.700Z,53.90
2018-08-04T10:02:47.151Z,54.00
2018-08-04T10:05:15.537Z,53.70
2018-08-04T10:07:43.975Z,53.90
2018-08-04T10:10:12.423Z,53.70
2018-08-04T10:12:40.781Z,53.80
2018-08-04T10:15:10.285Z,53.90
2018-08-04T10:17:39.072Z,53.80
2018-08-04T10:20:09.093Z,53.10
2018-08-04T10:22:37.568Z,53.70
2018-08-04T10:25:06.156Z,54.00
2018-08-04T10:27:34.639Z,54.70
2018-08-04T10:30:03.218Z,54.70
2018-08-04T10:32:31.837Z,55.10
2018-08-04T10:35:00.364Z,55.10
2018-08-04T10:37:28.762Z,55.50
2018-08-04T10:39:57.151Z,54.90
2018-08-04T10:42:25.714Z,54.80
2018-08-04T10:44:54.106Z,54.80
2018-08-04T10:47:22.474Z,54.60
2018-08-04T10:49:50.972Z,54.40
2018-08-04T10:52:19.379Z,54.10
2018-08-04T10:54:47.800Z,53.90
2018-08-04T10:57:16.344Z,53.90
2018-08-04T10:59:44.730Z,53.40
2018-08-04T11:04:41.341Z,53.40
2018-08-04T11:07:09.801Z,52.80
2018-08-04T11:09:38.254Z,52.70
2018-08-04T11:12:06.698Z,52.70
2018-08-04T11:14:35.076Z,52.10
2018-08-04T11:17:03.470Z,51.90
2018-08-04T11:19:31.873Z,51.80
2018-08-04T11:22:00.392Z,51.60
2018-08-04T11:24:28.803Z,51.10
2018-08-04T11:26:57.256Z,51.00
2018-08-04T11:29:25.733Z,51.00
2018-08-04T11:31:54.319Z,51.40
2018-08-04T11:34:22.744Z,51.50
2018-08-04T11:36:51.204Z,51.50
2018-08-04T11:39:19.610Z,51.50
2018-08-04T11:41:48.031Z,51.60
2018-08-04T11:44:16.412Z,51.60
2018-08-04T11:46:44.807Z,51.60
2018-08-04T11:49:13.177Z,52.60
2018-08-04T11:51:41.870Z,54.30
2018-08-04T11:54:10.345Z,55.10
2018-08-04T11:56:38.927Z,55.50
2018-08-04T11:59:07.363Z,55.80
2018-08-04T12:01:35.790Z,56.70
2018-08-04T12:04:04.190Z,56.90
2018-08-04T12:06:32.672Z,56.60
2018-08-04T12:09:01.153Z,57.00
2018-08-04T12:11:29.552Z,56.90
2018-08-04T12:13:59.043Z,56.90
2018-08-04T12:16:27.450Z,57.50
2018-08-04T12:18:55.797Z,57.40
2018-08-04T12:21:24.280Z,56.70
2018-08-04T12:23:52.658Z,55.60
2018-08-04T12:26:21.112Z,55.20
2018-08-04T12:28:49.494Z,54.60
2018-08-04T12:31:17.892Z,54.20
2018-08-04T12:33:46.574Z,54.10
2018-08-04T12:36:15.012Z,53.50
2018-08-04T12:38:43.531Z,53.30
2018-08-04T12:41:11.983Z,53.80
2018-08-04T12:43:40.381Z,54.50
2018-08-04T12:46:08.843Z,54.30
2018-08-04T12:48:37.568Z,54.40
2018-08-04T12:51:06.651Z,54.30
2018-08-04T12:53:35.379Z,53.60
2018-08-04T12:56:04.037Z,53.70
2018-08-04T12:58:32.628Z,54.60
2018-08-04T13:01:01.375Z,53.70
2018-08-04T13:03:29.994Z,53.40
2018-08-04T13:05:58.609Z,53.10
2018-08-04T13:08:27.464Z,52.40
2018-08-04T13:10:56.029Z,52.40
2018-08-04T13:13:24.733Z,51.30
2018-08-04T13:15:53.231Z,51.40
2018-08-04T13:18:21.633Z,51.00
2018-08-04T13:20:50.092Z,51.20
2018-08-04T13:23:18.491Z,50.80
2018-08-04T13:25:46.912Z,50.80
2018-08-04T13:28:15.545Z,51.70
2018-08-04T13:30:43.981Z,52.00
2018-08-04T13:33:12.608Z,52.30
2018-08-04T13:35:41.015Z,53.30
2018-08-04T13:38:09.564Z,52.40
2018-08-04T13:40:38.242Z,52.30
2018-08-04T13:43:06.921Z,52.30
2018-08-04T13:45:35.397Z,52.60
2018-08-04T13:48:03.806Z,52.20
2018-08-04T13:50:32.262Z,52.30
2018-08-04T13:53:00.669Z,52.30
2018-08-04T13:55:29.081Z,52.10
2018-08-04T13:57:57.607Z,51.80
2018-08-04T14:00:26.116Z,51.60
2018-08-04T14:02:54.495Z,51.60
2018-08-04T14:05:23.050Z,51.30
2018-08-04T14:07:51.532Z,51.60
2018-08-04T14:10:19.930Z,51.40
2018-08-04T14:12:48.423Z,51.30
2018-08-04T14:15:16.798Z,51.60
2018-08-04T14:17:45.174Z,51.90
2018-08-04T14:20:13.560Z,51.70
2018-08-04T14:22:41.961Z,51.60
2018-08-04T14:25:10.493Z,51.30
2018-08-04T14:27:38.923Z,51.00
2018-08-04T14:30:09.306Z,50.60
2018-08-04T14:32:37.870Z,50.70
2018-08-04T14:35:06.652Z,50.50
2018-08-04T14:37:35.174Z,50.30
2018-08-04T14:40:03.756Z,50.50
2018-08-04T14:42:32.179Z,50.50
2018-08-04T14:45:00.721Z,50.60
2018-08-04T14:47:29.113Z,51.10
2018-08-04T14:49:57.549Z,50.70
2018-08-04T14:52:26.026Z,51.10
2018-08-04T14:54:54.553Z,51.60
2018-08-04T14:57:23.046Z,51.40
2018-08-04T14:59:51.440Z,51.40
2018-08-04T15:02:20.281Z,51.70
2018-08-04T15:04:48.669Z,51.80
2018-08-04T15:07:17.052Z,51.50
2018-08-04T15:09:45.517Z,50.70
2018-08-04T15:12:14.042Z,50.40
2018-08-04T15:14:42.435Z,50.90
2018-08-04T15:17:10.871Z,51.30
2018-08-04T15:19:39.267Z,50.70
2018-08-04T15:22:07.641Z,51.00
2018-08-04T15:24:36.132Z,51.40
2018-08-04T15:27:04.563Z,51.80
2018-08-04T15:29:33.119Z,52.90
2018-08-04T15:32:01.480Z,54.20
2018-08-04T15:34:29.917Z,54.40
2018-08-04T15:36:58.374Z,54.70
2018-08-04T15:39:26.889Z,55.70
2018-08-04T15:41:55.270Z,56.10
2018-08-04T15:44:23.710Z,56.00
2018-08-04T15:46:52.061Z,56.10
2018-08-04T15:49:20.453Z,56.50
2018-08-04T15:51:48.992Z,56.40
2018-08-04T15:54:17.575Z,56.60
2018-08-04T15:56:46.086Z,56.10
2018-08-04T15:59:14.503Z,56.90
2018-08-04T16:01:42.939Z,59.60
2018-08-04T16:04:11.633Z,62.40
2018-08-04T16:06:40.134Z,63.80
2018-08-04T16:09:09.640Z,63.50
2018-08-04T16:11:38.165Z,63.80
2018-08-04T16:14:06.663Z,63.00
2018-08-04T16:16:35.043Z,63.70
2018-08-04T16:19:03.408Z,64.20
2018-08-04T16:21:31.912Z,65.10
2018-08-04T16:24:00.280Z,64.10
2018-08-04T16:26:28.773Z,62.70
2018-08-04T16:28:57.166Z,61.50
2018-08-04T16:31:25.545Z,62.40
2018-08-04T16:33:54.204Z,63.00
2018-08-04T16:36:22.787Z,63.40
2018-08-04T16:38:51.577Z,63.40
2018-08-04T16:41:20.001Z,62.70
2018-08-04T16:43:48.540Z,64.00
2018-08-04T16:46:16.914Z,66.90
2018-08-04T16:48:45.292Z,68.30
2018-08-04T16:51:13.712Z,69.70
2018-08-04T16:53:42.103Z,69.60
2018-08-04T16:56:10.684Z,69.30
2018-08-04T16:58:39.336Z,69.90
2018-08-04T17:01:07.836Z,70.30
2018-08-04T17:03:36.503Z,70.30
2018-08-04T17:06:05.231Z,70.50
2018-08-04T17:08:33.768Z,70.20
2018-08-04T17:11:02.210Z,70.50
2018-08-04T17:13:30.659Z,70.90
2018-08-04T17:15:59.131Z,70.60
2018-08-04T17:18:27.736Z,69.80
2018-08-04T17:20:56.300Z,68.90
2018-08-04T17:23:24.650Z,69.30
2018-08-04T17:25:53.934Z,69.50
2018-08-04T17:28:22.593Z,70.20
2018-08-04T17:30:51.035Z,71.00
2018-08-04T17:33:19.467Z,72.10
2018-08-04T17:35:47.966Z,71.80
2018-08-04T17:38:16.394Z,71.30
2018-08-04T17:40:44.778Z,71.20
2018-08-04T17:43:13.333Z,70.80
2018-08-04T17:45:41.893Z,71.70
2018-08-04T17:48:10.300Z,71.00
2018-08-04T17:50:38.743Z,71.20
2018-08-04T17:53:07.189Z,71.50
2018-08-04T17:55:35.584Z,71.80
2018-08-04T17:58:04.019Z,72.40
2018-08-04T18:00:32.510Z,72.50
2018-08-04T18:03:00.991Z,72.90
2018-08-04T18:05:29.443Z,73.20
2018-08-04T18:07:57.832Z,73.50
2018-08-04T18:10:26.198Z,73.20
2018-08-04T18:12:54.641Z,73.10
2018-08-04T18:17:51.207Z,73.60
2018-08-04T18:20:19.791Z,73.50
2018-08-04T18:22:48.199Z,73.90
2018-08-04T18:25:16.573Z,74.30
2018-08-04T18:27:45.073Z,75.00
2018-08-04T18:30:13.666Z,75.90
2018-08-04T18:32:42.066Z,76.00
2018-08-04T18:35:10.455Z,76.90
2018-08-04T18:37:39.045Z,77.10
2018-08-04T18:40:07.590Z,77.20
2018-08-04T18:42:36.010Z,77.40
2018-08-04T18:45:05.510Z,77.20
2018-08-04T18:47:34.077Z,77.40
2018-08-04T18:50:02.584Z,77.50
2018-08-04T18:52:31.017Z,78.10
2018-08-04T18:54:59.374Z,78.10
2018-08-04T18:57:27.936Z,78.50
2018-08-04T18:59:56.571Z,78.90
2018-08-04T19:02:25.032Z,79.30
2018-08-04T19:04:53.440Z,79.60
2018-08-04T19:07:21.885Z,80.30
2018-08-04T19:09:50.529Z,80.40
2018-08-04T19:12:18.905Z,81.00
2018-08-04T19:14:47.339Z,80.40
2018-08-04T19:17:15.863Z,80.30
2018-08-04T19:19:44.425Z,80.40
2018-08-04T19:22:13.031Z,80.70
2018-08-04T19:24:41.420Z,80.60
2018-08-04T19:27:09.832Z,80.70
2018-08-04T19:29:38.465Z,80.90
2018-08-04T19:32:06.990Z,81.40
2018-08-04T19:34:35.525Z,81.40
2018-08-04T19:37:04.018Z,81.80
2018-08-04T19:39:32.673Z,82.30
2018-08-04T19:42:01.078Z,82.70
2018-08-04T19:44:29.523Z,82.80
2018-08-04T19:46:57.915Z,83.30
2018-08-04T19:49:26.681Z,83.40
2018-08-04T19:51:55.075Z,83.60
2018-08-04T19:54:23.479Z,83.80
2018-08-04T19:56:51.895Z,83.80
2018-08-04T19:59:20.475Z,83.90
2018-08-04T20:01:48.899Z,84.70
2018-08-04T20:04:17.530Z,84.80
2018-08-04T20:06:45.918Z,84.80
2018-08-04T20:09:14.330Z,85.00
2018-08-04T20:11:42.763Z,85.50
2018-08-04T20:14:11.167Z,85.90
2018-08-04T20:16:39.653Z,85.90
2018-08-04T20:21:36.182Z,87.00
2018-08-04T20:24:04.644Z,87.20
2018-08-04T20:26:33.043Z,87.20
2018-08-04T20:29:01.604Z,87.20
2018-08-04T20:31:30.114Z,88.20
2018-08-04T20:33:58.540Z,88.20
2018-08-04T20:36:27.042Z,88.40
2018-08-04T20:38:55.618Z,88.80
2018-08-04T20:41:23.961Z,89.00
2018-08-04T20:43:52.596Z,89.50
2018-08-04T20:46:21.048Z,89.40
2018-08-04T20:48:49.558Z,89.70
2018-08-04T20:51:17.978Z,90.10
2018-08-04T20:53:46.433Z,90.30
2018-08-04T20:56:14.889Z,90.40
2018-08-04T20:58:43.254Z,90.40
2018-08-04T21:01:23.256Z,90.80
2018-08-04T21:03:51.667Z,90.70
2018-08-04T21:06:20.007Z,90.90
2018-08-04T21:08:49.443Z,91.10
2018-08-04T21:11:18.652Z,91.20
2018-08-04T21:13:50.149Z,91.40
2018-08-04T21:16:19.760Z,91.40
2018-08-04T21:18:48.122Z,91.40
2018-08-04T21:21:16.551Z,91.60
2018-08-04T21:23:46.040Z,91.60
2018-08-04T21:26:16.163Z,92.20
2018-08-04T21:28:44.682Z,92.10
2018-08-04T21:31:13.026Z,92.40
2018-08-04T21:33:42.827Z,92.20
2018-08-04T21:36:12.045Z,92.00
2018-08-04T21:38:41.322Z,92.10
2018-08-04T21:41:09.723Z,92.00
2018-08-04T21:43:38.172Z,92.20
2018-08-04T21:46:07.332Z,92.40
2018-08-04T21:48:35.743Z,92.60
2018-08-04T21:51:05.081Z,92.50
2018-08-04T21:53:33.430Z,92.80
2018-08-04T21:56:01.936Z,93.30
2018-08-04T21:58:31.445Z,93.60
2018-08-04T22:01:05.786Z,94.00
2018-08-04T22:03:34.207Z,93.80
2018-08-04T22:06:02.603Z,93.60
2018-08-04T22:08:43.191Z,93.10
2018-08-04T22:11:11.620Z,92.20
2018-08-04T22:13:40.724Z,92.20
2018-08-04T22:16:11.844Z,91.50
2018-08-04T22:18:40.385Z,91.30
2018-08-04T22:21:08.766Z,91.10
2018-08-04T22:23:37.841Z,90.70
2018-08-04T22:26:06.958Z,91.00
2018-08-04T22:28:35.342Z,90.60
2018-08-04T22:31:03.995Z,90.60
2018-08-04T22:33:32.391Z,90.60
2018-08-04T22:36:00.740Z,90.70
2018-08-04T22:38:32.023Z,90.40
2018-08-04T22:41:00.614Z,90.30
2018-08-04T22:43:30.056Z,90.10
2018-08-04T22:46:04.169Z,90.10
2018-08-04T22:48:32.773Z,90.50
2018-08-04T22:51:01.290Z,91.20
2018-08-04T22:53:30.959Z,91.50
2018-08-04T22:55:59.396Z,92.00
2018-08-04T22:58:28.754Z,92.30
2018-08-04T23:00:57.169Z,92.50
2018-08-04T23:03:25.653Z,92.90
2018-08-04T23:05:54.989Z,93.10
2018-08-04T23:08:23.405Z,93.40
2018-08-04T23:10:51.771Z,93.90
2018-08-04T23:13:22.007Z,94.00
2018-08-04T23:15:50.417Z,93.90
2018-08-04T23:18:21.307Z,94.00
2018-08-04T23:20:49.730Z,94.00
2018-08-04T23:23:18.109Z,94.00
2018-08-04T23:25:47.298Z,94.00
2018-08-04T23:28:16.475Z,93.90
2018-08-04T23:30:46.961Z,94.00
2018-08-04T23:33:15.377Z,93.80
2018-08-04T23:35:43.825Z,93.70
2018-08-04T23:40:41.067Z,93.80
2018-08-04T23:43:09.544Z,93.80
2018-08-04T23:45:37.974Z,94.20
2018-08-04T23:48:06.450Z,94.40
2018-08-04T23:50:34.880Z,94.50
2018-08-04T23:53:03.433Z,94.50
2018-08-04T23:55:31.779Z,94.50
2018-08-04T23:58:00.411Z,94.90
